Ana Sayfa
METAR-TAF:

METAR-TAF

Havaalanları :

Searle Field

Ogallala, Nebraska, Amerika Birleşik Devletleri

Enlem: 41-07-11N, Boylam: 101-46-08W, yükseklik: 999 m

Güncel hava durumu gözlemi

Rapor saat 03:55 UTC de 28 dakika önce yapıldı.
Rüzgar kuzeydan 22 kt ve 28 kt'a kadar ani rüzgarlar
Sıcaklık 5°C
Nem 87%
Basınç 1019 hPa
Görüş mesafesi: 16.1 km
1300 ft yükseklikte parçalı bulutlu
3800 ft yükseklikte çok bulutlu
hafif yağmur

METAR: KOGA 180355Z AUTO 01022G28KT 10SM -RA SCT013 OVC038 05/03 A3008 RMK AO2 T00480033 TSNO

Saat: 22:23 (04:23 UTC)


TAF: eksik

4.000'den fazla havaalanı için hava durumu gözlemleri ve tahminleri (METAR ve TAF raporları).

Kullanılabilir istasyonlar harita üzerinde sarı ve kırmızı noktalarla gösterilir.

İstasyonun adını görmek için fareyi noktanın üzerinde gezdirin.

Sonrasında hava gözlem ve tahminlerini görmek için tıklayın.

Haritayı değiştirmek için: yaklaştırmak için siyah artı işaretli yeşil düğmeye ve uzaklaştırmak için de eksi işaretli düğmeye hızla tıklayın; bitişik haritalar için yeşil okları kullanın.


METAR-TAF: